createdAt,value
2022-11-23T06:24:34.903Z,18.68
2022-11-23T06:27:02.806Z,18.71
2022-11-23T06:29:31.032Z,18.74
2022-11-23T06:31:59.204Z,18.74
2022-11-23T06:34:32.841Z,18.73
2022-11-23T06:37:00.765Z,18.74
2022-11-23T06:39:28.664Z,18.77
2022-11-23T06:42:10.968Z,18.78
2022-11-23T06:44:45.793Z,18.77
2022-11-23T06:47:16.862Z,18.79
2022-11-23T06:49:46.314Z,18.79
2022-11-23T06:52:14.521Z,18.80
2022-11-23T06:54:42.472Z,18.80
2022-11-23T06:57:11.749Z,18.78
2022-11-23T06:59:44.907Z,18.74
2022-11-23T07:02:13.037Z,18.76
2022-11-23T07:04:40.923Z,18.76
2022-11-23T07:07:08.953Z,18.75
2022-11-23T07:09:37.046Z,18.75
2022-11-23T07:12:05.005Z,18.75
2022-11-23T07:14:34.223Z,18.74
2022-11-23T07:17:02.129Z,18.75
2022-11-23T07:19:30.285Z,18.75
2022-11-23T07:21:58.279Z,18.77
2022-11-23T07:24:26.220Z,18.77
2022-11-23T07:26:54.268Z,18.76
2022-11-23T07:29:22.165Z,18.79
2022-11-23T07:31:51.468Z,18.79
2022-11-23T07:34:19.404Z,18.80
2022-11-23T07:36:47.280Z,18.79
2022-11-23T07:39:15.425Z,18.78
2022-11-23T07:41:43.383Z,18.78
2022-11-23T07:44:11.309Z,18.75
2022-11-23T07:46:39.190Z,18.76
2022-11-23T07:49:08.679Z,18.78
2022-11-23T07:51:36.557Z,18.77
2022-11-23T07:54:04.629Z,18.78
2022-11-23T07:56:32.488Z,18.77
2022-11-23T07:59:00.402Z,18.77
2022-11-23T08:01:28.303Z,18.78
2022-11-23T08:03:56.725Z,18.78
2022-11-23T08:06:25.991Z,18.79
2022-11-23T08:08:55.544Z,18.78
2022-11-23T08:11:23.528Z,18.78
2022-11-23T08:13:51.406Z,18.77
2022-11-23T08:16:20.092Z,18.79
2022-11-23T08:18:50.715Z,18.79
2022-11-23T08:21:18.630Z,18.79
2022-11-23T08:23:47.912Z,18.79
2022-11-23T08:26:15.805Z,18.78
2022-11-23T08:28:43.686Z,18.78
2022-11-23T08:31:14.828Z,18.80
2022-11-23T08:33:42.715Z,18.80
2022-11-23T08:36:10.772Z,18.79
2022-11-23T08:38:38.858Z,18.81
2022-11-23T08:41:08.732Z,18.82
2022-11-23T08:43:36.764Z,18.81
2022-11-23T08:46:09.269Z,18.81
2022-11-23T08:48:38.952Z,18.81
2022-11-23T08:51:07.174Z,18.82
2022-11-23T08:53:35.122Z,18.82
2022-11-23T08:56:03.046Z,18.83
2022-11-23T08:58:32.505Z,18.84
2022-11-23T09:01:00.521Z,18.85
2022-11-23T09:03:28.424Z,18.84
2022-11-23T09:06:00.712Z,18.84
2022-11-23T09:08:28.608Z,18.86
2022-11-23T09:11:00.072Z,18.86
2022-11-23T09:13:27.983Z,18.87
2022-11-23T09:16:00.019Z,18.88
2022-11-23T09:18:28.000Z,18.88
2022-11-23T09:20:55.890Z,18.89
2022-11-23T09:23:23.755Z,18.90
2022-11-23T09:25:51.635Z,18.92
2022-11-23T09:28:19.780Z,18.93
2022-11-23T09:30:48.157Z,18.93
2022-11-23T09:33:17.441Z,18.96
2022-11-23T09:35:45.399Z,18.96
2022-11-23T09:38:13.421Z,18.97
2022-11-23T09:40:41.903Z,18.97
2022-11-23T09:43:20.824Z,18.98
2022-11-23T09:45:50.489Z,18.86
2022-11-23T09:48:36.267Z,18.99
2022-11-23T09:51:06.484Z,19.00
2022-11-23T09:53:35.969Z,19.03
2022-11-23T09:56:03.839Z,19.04
2022-11-23T09:58:33.770Z,19.05
2022-11-23T10:01:02.626Z,19.04
2022-11-23T10:03:33.752Z,19.05
2022-11-23T10:06:03.821Z,19.07
2022-11-23T10:08:40.773Z,19.07
2022-11-23T10:11:28.804Z,19.07
2022-11-23T10:13:59.230Z,19.08
2022-11-23T10:16:31.051Z,19.09
2022-11-23T10:19:03.629Z,19.08
2022-11-23T10:21:38.497Z,19.09
2022-11-23T10:24:13.321Z,19.10
2022-11-23T10:26:42.368Z,19.11
2022-11-23T10:29:13.443Z,19.13
2022-11-23T10:31:41.458Z,19.13
2022-11-23T10:34:12.568Z,19.14
2022-11-23T10:36:40.520Z,19.12
2022-11-23T10:39:15.450Z,19.14
2022-11-23T10:41:43.315Z,19.14
2022-11-23T10:44:28.960Z,19.15
2022-11-23T10:46:56.854Z,19.17
2022-11-23T10:49:27.587Z,19.17
2022-11-23T10:51:56.869Z,19.19
2022-11-23T10:54:30.529Z,19.19
2022-11-23T10:56:59.196Z,19.20
2022-11-23T10:59:32.764Z,19.21
2022-11-23T11:02:10.464Z,19.26
2022-11-23T11:04:39.800Z,19.32
2022-11-23T11:07:34.409Z,19.33
2022-11-23T11:10:04.315Z,19.27
2022-11-23T11:12:35.191Z,19.32
2022-11-23T11:15:11.260Z,19.32
2022-11-23T11:17:39.990Z,19.34
2022-11-23T11:20:31.219Z,19.33
2022-11-23T11:22:59.655Z,19.33
2022-11-23T11:25:29.753Z,19.33
2022-11-23T11:27:57.623Z,19.34
2022-11-23T11:30:25.863Z,19.35
2022-11-23T11:32:55.657Z,19.36
2022-11-23T11:35:26.339Z,19.38
2022-11-23T11:37:57.223Z,19.40
2022-11-23T11:40:27.413Z,19.42
2022-11-23T11:42:56.281Z,19.43
2022-11-23T11:45:25.849Z,19.39
2022-11-23T11:47:57.714Z,19.41
2022-11-23T11:50:31.410Z,19.41
2022-11-23T11:53:04.065Z,19.40
2022-11-23T11:55:37.591Z,19.41
2022-11-23T11:58:06.600Z,19.42
2022-11-23T12:00:35.665Z,19.44
2022-11-23T12:03:07.845Z,19.43
2022-11-23T12:05:39.319Z,19.44
2022-11-23T12:08:11.649Z,19.46
2022-11-23T12:10:41.785Z,19.48
2022-11-23T12:13:11.066Z,19.55
2022-11-23T12:15:49.366Z,19.57
2022-11-23T12:18:37.418Z,19.61
2022-11-23T12:21:05.862Z,19.61
2022-11-23T12:23:46.022Z,19.65
2022-11-23T12:26:20.225Z,19.68
2022-11-23T12:29:02.074Z,19.71
2022-11-23T12:31:39.398Z,19.72
2022-11-23T12:34:31.439Z,19.75
2022-11-23T12:37:10.068Z,19.76
2022-11-23T12:40:05.353Z,19.77
2022-11-23T12:42:36.711Z,19.81
2022-11-23T12:45:25.260Z,19.82
2022-11-23T12:47:58.551Z,19.84
2022-11-23T12:50:30.207Z,19.86
2022-11-23T12:53:03.587Z,19.85
2022-11-23T12:57:02.132Z,20.27
2022-11-23T12:59:34.678Z,20.25
2022-11-23T13:02:04.347Z,20.22
2022-11-23T13:04:49.192Z,20.18
2022-11-23T13:07:46.020Z,20.16
2022-11-23T13:10:41.945Z,20.13
2022-11-23T13:13:30.615Z,20.13
2022-11-23T13:16:15.747Z,20.12
2022-11-23T13:18:53.768Z,20.10
2022-11-23T13:21:28.539Z,20.10
2022-11-23T13:23:56.450Z,20.10
2022-11-23T13:26:24.633Z,20.09
2022-11-23T13:28:54.388Z,20.07
2022-11-23T13:31:24.797Z,20.08
2022-11-23T13:33:54.998Z,20.07
2022-11-23T13:40:03.955Z,20.07
2022-11-23T13:42:33.287Z,20.05
2022-11-23T13:45:25.863Z,20.02
2022-11-23T13:48:05.218Z,20.00
2022-11-23T13:50:33.177Z,19.98
2022-11-23T13:53:01.078Z,19.98
2022-11-23T13:55:32.644Z,19.97
2022-11-23T13:58:36.038Z,19.98
2022-11-23T14:01:05.380Z,19.98
2022-11-23T14:03:53.274Z,20.02
2022-11-23T14:06:27.430Z,20.07
2022-11-23T14:09:01.784Z,20.10
2022-11-23T14:11:30.682Z,20.11
2022-11-23T14:13:59.967Z,20.09
2022-11-23T14:16:39.655Z,20.09
2022-11-23T14:19:10.116Z,20.09
2022-11-23T14:21:39.606Z,20.09
2022-11-23T14:24:32.210Z,20.08
2022-11-23T14:27:46.128Z,20.10
2022-11-23T14:30:40.230Z,20.10
2022-11-23T14:33:17.424Z,20.09
2022-11-23T14:35:48.042Z,20.08
2022-11-23T14:38:48.133Z,20.09
2022-11-23T14:41:17.761Z,20.08
2022-11-23T14:43:46.014Z,20.08
2022-11-23T14:46:16.126Z,20.09
2022-11-23T14:48:45.855Z,20.10
2022-11-23T14:51:18.214Z,20.09
2022-11-23T14:53:48.865Z,20.07
2022-11-23T14:56:27.020Z,20.04
2022-11-23T14:58:55.283Z,20.03
2022-11-23T15:01:23.269Z,20.01
2022-11-23T15:03:58.963Z,19.99
2022-11-23T15:06:28.391Z,19.99
2022-11-23T15:09:01.169Z,19.97
2022-11-23T15:11:29.395Z,19.94
2022-11-23T15:14:03.182Z,19.94
2022-11-23T15:16:31.161Z,19.92
2022-11-23T15:19:00.466Z,19.91
2022-11-23T15:21:28.454Z,19.91
2022-11-23T15:23:57.374Z,19.88
2022-11-23T15:26:46.812Z,19.87
2022-11-23T15:29:30.227Z,19.86
2022-11-23T15:34:47.818Z,19.88
2022-11-23T15:37:15.758Z,19.85
2022-11-23T15:39:44.117Z,19.82
2022-11-23T15:42:12.076Z,19.80
2022-11-23T15:44:39.978Z,19.78
2022-11-23T15:47:08.072Z,19.76
2022-11-23T15:49:38.216Z,19.75
2022-11-23T15:52:07.606Z,19.73
2022-11-23T15:54:36.495Z,19.70
2022-11-23T15:57:04.697Z,19.67
2022-11-23T15:59:33.488Z,19.66
2022-11-23T16:02:01.996Z,19.63
2022-11-23T16:04:31.388Z,19.63
2022-11-23T16:06:59.940Z,19.60
2022-11-23T16:09:55.423Z,19.60
2022-11-23T16:12:28.228Z,19.58
2022-11-23T16:14:56.570Z,19.57
2022-11-23T16:17:25.216Z,19.57
2022-11-23T16:19:53.667Z,19.57
2022-11-23T16:22:27.214Z,19.56
2022-11-23T16:25:03.656Z,19.55
2022-11-23T16:27:31.616Z,19.55
2022-11-23T16:30:03.431Z,19.55
2022-11-23T16:32:32.267Z,19.54
2022-11-23T16:35:05.984Z,19.55
2022-11-23T16:37:33.890Z,19.53
2022-11-23T16:40:03.289Z,19.52
2022-11-23T16:42:31.226Z,19.51
2022-11-23T16:44:59.305Z,19.49
2022-11-23T16:47:28.208Z,19.49
2022-11-23T16:49:56.230Z,19.47
2022-11-23T16:52:24.279Z,19.46
2022-11-23T16:54:52.567Z,19.46
2022-11-23T16:57:25.381Z,19.44
2022-11-23T16:59:53.333Z,19.42
2022-11-23T17:02:21.287Z,19.40
2022-11-23T17:04:49.321Z,19.40
2022-11-23T17:07:17.881Z,19.39
2022-11-23T17:09:45.774Z,19.38
2022-11-23T17:12:15.907Z,19.37
2022-11-23T17:14:46.597Z,19.34
2022-11-23T17:17:17.405Z,19.33
2022-11-23T17:19:48.249Z,19.34
2022-11-23T17:22:16.569Z,19.33
2022-11-23T17:24:44.471Z,19.32
2022-11-23T17:27:13.699Z,19.31
2022-11-23T17:29:42.478Z,19.31
2022-11-23T17:32:12.548Z,19.29
2022-11-23T17:34:40.488Z,19.29
2022-11-23T17:37:10.136Z,19.27
2022-11-23T17:39:38.068Z,19.27
2022-11-23T17:42:06.043Z,19.26
2022-11-23T17:44:33.898Z,19.24
2022-11-23T17:47:01.821Z,19.23
2022-11-23T17:49:31.469Z,19.24
2022-11-23T17:51:59.834Z,19.24
2022-11-23T17:54:27.725Z,19.23
2022-11-23T17:56:57.719Z,19.22
2022-11-23T17:59:25.652Z,19.21
2022-11-23T18:01:53.626Z,19.20
2022-11-23T18:04:21.572Z,19.19
2022-11-23T18:06:50.881Z,19.18
2022-11-23T18:09:18.761Z,19.17
2022-11-23T18:11:46.659Z,19.17
2022-11-23T18:14:14.681Z,19.16
2022-11-23T18:16:42.534Z,19.16
2022-11-23T18:19:10.416Z,19.15
2022-11-23T18:21:38.373Z,19.14
2022-11-23T18:24:08.883Z,19.14
2022-11-23T18:26:36.812Z,19.14
2022-11-23T18:29:04.901Z,19.14
2022-11-23T18:31:32.914Z,19.13
2022-11-23T18:34:02.794Z,19.10
2022-11-23T18:36:30.686Z,19.11
2022-11-23T18:38:58.764Z,19.12
2022-11-23T18:41:28.310Z,19.11
2022-11-23T18:43:59.048Z,19.13
2022-11-23T18:46:29.378Z,19.16
2022-11-23T18:48:58.396Z,19.19
2022-11-23T18:51:26.423Z,19.18
2022-11-23T18:53:55.582Z,19.18
2022-11-23T18:56:23.452Z,19.17
2022-11-23T18:58:52.688Z,19.16
2022-11-23T19:01:21.536Z,19.17
2022-11-23T19:03:50.797Z,19.17
2022-11-23T19:06:19.405Z,19.18
2022-11-23T19:08:48.094Z,19.20
2022-11-23T19:11:17.957Z,19.22
2022-11-23T19:13:46.041Z,19.22
2022-11-23T19:16:20.971Z,19.22
2022-11-23T19:18:49.000Z,19.23
2022-11-23T19:21:17.218Z,19.22
2022-11-23T19:23:45.143Z,19.23
2022-11-23T19:26:13.071Z,19.23
2022-11-23T19:28:44.668Z,19.26
2022-11-23T19:31:13.316Z,19.26
2022-11-23T19:33:42.677Z,19.23
2022-11-23T19:36:11.514Z,19.24
2022-11-23T19:38:39.449Z,19.25
2022-11-23T19:41:07.398Z,19.28
2022-11-23T19:43:35.314Z,19.27
2022-11-23T19:46:04.202Z,19.27
2022-11-23T19:48:32.567Z,19.27
2022-11-23T19:51:02.379Z,19.27
2022-11-23T19:53:31.242Z,19.28
2022-11-23T19:56:03.375Z,19.27
2022-11-23T19:58:32.394Z,19.27
2022-11-23T20:01:01.155Z,19.27
2022-11-23T20:03:29.029Z,19.26
2022-11-23T20:05:57.680Z,19.25
2022-11-23T20:08:27.166Z,19.26
2022-11-23T20:10:55.171Z,19.26
2022-11-23T20:13:23.174Z,19.28
2022-11-23T20:15:51.102Z,19.28
2022-11-23T20:18:19.416Z,19.30
2022-11-23T20:20:48.058Z,19.29
2022-11-23T20:23:16.018Z,19.30
2022-11-23T20:25:45.413Z,19.29
2022-11-23T20:28:14.081Z,19.31
2022-11-23T20:30:42.487Z,19.31
2022-11-23T20:33:10.699Z,19.33
2022-11-23T20:35:38.761Z,19.32
2022-11-23T20:38:06.732Z,19.31
2022-11-23T20:40:34.601Z,19.32
2022-11-23T20:43:03.917Z,19.31
2022-11-23T20:45:31.845Z,19.30
2022-11-23T20:47:59.800Z,19.31
2022-11-23T20:50:28.027Z,19.30
2022-11-23T20:52:56.138Z,19.30
2022-11-23T20:55:24.395Z,19.30
2022-11-23T20:57:55.381Z,19.31
2022-11-23T21:00:28.001Z,19.30
2022-11-23T21:02:56.729Z,19.30
2022-11-23T21:05:24.821Z,19.32
2022-11-23T21:07:55.949Z,19.31
2022-11-23T21:10:41.275Z,19.33
2022-11-23T21:13:37.217Z,19.32
2022-11-23T21:16:18.180Z,19.33
2022-11-23T21:18:46.227Z,19.33
2022-11-23T21:21:14.127Z,19.33
2022-11-23T21:23:42.033Z,19.34
2022-11-23T21:26:09.977Z,19.33
2022-11-23T21:28:37.999Z,19.34
2022-11-23T21:31:08.798Z,19.34
2022-11-23T21:33:38.582Z,19.34
2022-11-23T21:36:07.449Z,19.34
2022-11-23T21:38:36.215Z,19.33
2022-11-23T21:41:04.771Z,19.33
2022-11-23T21:43:33.184Z,19.34
2022-11-23T21:46:01.558Z,19.34
2022-11-23T21:48:29.507Z,19.36
2022-11-23T21:51:02.957Z,19.36
2022-11-23T21:53:31.069Z,19.36
2022-11-23T21:56:01.936Z,19.38
2022-11-23T21:58:29.924Z,19.39
2022-11-23T22:01:04.457Z,19.39
2022-11-23T22:03:33.218Z,19.39
2022-11-23T22:06:02.549Z,19.40
2022-11-23T22:08:30.579Z,19.38
2022-11-23T22:10:58.608Z,19.38
2022-11-23T22:13:27.073Z,19.37
2022-11-23T22:15:55.012Z,19.37
2022-11-23T22:18:22.950Z,19.35
2022-11-23T22:20:50.920Z,19.35
2022-11-23T22:23:20.212Z,19.35
2022-11-23T22:25:48.352Z,19.33
2022-11-23T22:28:16.271Z,19.34
2022-11-23T22:30:44.153Z,19.35
2022-11-23T22:33:13.422Z,19.35
2022-11-23T22:35:41.405Z,19.35
2022-11-23T22:38:09.275Z,19.36
2022-11-23T22:40:38.599Z,19.36
2022-11-23T22:43:06.500Z,19.37
2022-11-23T22:45:34.504Z,19.39
2022-11-23T22:48:02.484Z,19.40
2022-11-23T22:50:30.333Z,19.40
2022-11-23T22:52:58.325Z,19.39
2022-11-23T22:55:26.224Z,19.39
2022-11-23T22:57:55.489Z,19.39
2022-11-23T23:00:23.712Z,19.40
2022-11-23T23:02:51.744Z,19.40
2022-11-23T23:05:19.929Z,19.40
2022-11-23T23:07:47.863Z,19.40
2022-11-23T23:10:15.952Z,19.40
2022-11-23T23:12:43.831Z,19.41
2022-11-23T23:15:13.347Z,19.40
2022-11-23T23:17:41.280Z,19.40
2022-11-23T23:20:10.208Z,19.40
2022-11-23T23:22:38.791Z,19.40
2022-11-23T23:25:08.463Z,19.41
2022-11-23T23:27:36.348Z,19.40
2022-11-23T23:30:04.500Z,19.41
2022-11-23T23:32:33.846Z,19.41
2022-11-23T23:35:02.148Z,19.42
2022-11-23T23:37:30.988Z,19.41
2022-11-23T23:39:58.859Z,19.41
2022-11-23T23:42:26.833Z,19.41
2022-11-23T23:44:54.913Z,19.42
2022-11-23T23:47:22.763Z,19.42
2022-11-23T23:49:52.030Z,19.43
2022-11-23T23:52:20.286Z,19.44
2022-11-23T23:54:48.163Z,19.45
2022-11-23T23:57:16.051Z,19.46
2022-11-23T23:59:43.894Z,19.46
